YMA7002 NZWP-YSNF
Flight info
| Callsign | YMA7002 |
|---|---|
| Flight time | N/A |
| Altitude | 17000 |
| Route | KT G591 ABVOM |
| Aircraft | DH8D/M-SDE2E3FGRY/H |
Departure
| Time | 2026-04-18 02:14 |
|---|---|
| Airport | RNZAF Base Auckland-Whenuapai (NZWP) |
Arrival
| Time | N/A |
|---|---|
| Airport | Norfolk Island International Airport (YSNF) |
| Time | Latitude | Longitude | Altitude | Speed | Heading |
|---|---|---|---|---|---|
| 2026-04-18 01:57 | -36.79027 | 174.62772 | 106 ft | 0 kts | 272° |
| 2026-04-18 02:09 | -36.79040 | 174.62753 | 106 ft | 6 kts | 197° |
| 2026-04-18 02:09 | -36.79099 | 174.62750 | 106 ft | 9 kts | 195° |
| 2026-04-18 02:10 | -36.79145 | 174.62695 | 106 ft | 9 kts | 233° |
| 2026-04-18 02:10 | -36.79182 | 174.62633 | 106 ft | 8 kts | 234° |
| 2026-04-18 02:10 | -36.79219 | 174.62572 | 107 ft | 10 kts | 231° |
| 2026-04-18 02:10 | -36.79267 | 174.62494 | 108 ft | 12 kts | 233° |
| 2026-04-18 02:11 | -36.79324 | 174.62402 | 109 ft | 14 kts | 232° |
| 2026-04-18 02:11 | -36.79388 | 174.62295 | 111 ft | 16 kts | 233° |
| 2026-04-18 02:11 | -36.79454 | 174.62187 | 112 ft | 15 kts | 232° |
| 2026-04-18 02:11 | -36.79518 | 174.62087 | 114 ft | 13 kts | 222° |
| 2026-04-18 02:12 | -36.79585 | 174.62088 | 116 ft | 10 kts | 127° |
| 2026-04-18 02:12 | -36.79582 | 174.62135 | 115 ft | 0 kts | 57° |
| 2026-04-18 02:13 | -36.79569 | 174.62161 | 114 ft | 20 kts | 57° |
| 2026-04-18 02:13 | -36.79276 | 174.62640 | 108 ft | 112 kts | 52° |
| 2026-04-18 02:14 | -36.78711 | 174.63594 | 321 ft | 144 kts | 50° |
| 2026-04-18 02:14 | -36.78136 | 174.64644 | 861 ft | 151 kts | 50° |
| 2026-04-18 02:14 | -36.77503 | 174.65576 | 1548 ft | 139 kts | 44° |
| 2026-04-18 02:14 | -36.76858 | 174.66487 | 1993 ft | 141 kts | 33° |
| 2026-04-18 02:15 | -36.75988 | 174.66923 | 2530 ft | 133 kts | 2° |
| 2026-04-18 02:15 | -36.75075 | 174.66859 | 2992 ft | 136 kts | 354° |
| 2026-04-18 02:15 | -36.74072 | 174.66782 | 3307 ft | 153 kts | 354° |
| 2026-04-18 02:15 | -36.72936 | 174.66693 | 3628 ft | 174 kts | 354° |
| 2026-04-18 02:16 | -36.71649 | 174.66592 | 3917 ft | 197 kts | 354° |
| 2026-04-18 02:16 | -36.70244 | 174.66476 | 4469 ft | 204 kts | 354° |
| 2026-04-18 02:16 | -36.68874 | 174.66327 | 5310 ft | 196 kts | 346° |
| 2026-04-18 02:16 | -36.67681 | 174.65562 | 5792 ft | 197 kts | 325° |
| 2026-04-18 02:17 | -36.66573 | 174.64560 | 6320 ft | 198 kts | 325° |
| 2026-04-18 02:17 | -36.65453 | 174.63564 | 6809 ft | 199 kts | 324° |
| 2026-04-18 02:17 | -36.64330 | 174.62546 | 7308 ft | 201 kts | 326° |
| 2026-04-18 02:17 | -36.63178 | 174.61580 | 7824 ft | 203 kts | 326° |
| 2026-04-18 02:18 | -36.62019 | 174.60603 | 8326 ft | 205 kts | 325° |
| 2026-04-18 02:18 | -36.60844 | 174.59602 | 8828 ft | 207 kts | 325° |
| 2026-04-18 02:18 | -36.59659 | 174.58589 | 9319 ft | 208 kts | 325° |
| 2026-04-18 02:18 | -36.58465 | 174.57562 | 9805 ft | 210 kts | 324° |
| 2026-04-18 02:19 | -36.57265 | 174.56522 | 10285 ft | 212 kts | 324° |
| 2026-04-18 02:19 | -36.56041 | 174.55456 | 10752 ft | 214 kts | 324° |
| 2026-04-18 02:19 | -36.54824 | 174.54396 | 11200 ft | 216 kts | 324° |
| 2026-04-18 02:19 | -36.53600 | 174.53328 | 11666 ft | 216 kts | 324° |
| 2026-04-18 02:20 | -36.52371 | 174.52255 | 12123 ft | 217 kts | 324° |
| 2026-04-18 02:20 | -36.51136 | 174.51176 | 12574 ft | 218 kts | 324° |
| 2026-04-18 02:20 | -36.49900 | 174.50095 | 13020 ft | 218 kts | 324° |
| 2026-04-18 02:20 | -36.48670 | 174.49022 | 13439 ft | 219 kts | 324° |
| 2026-04-18 02:21 | -36.47421 | 174.47928 | 13843 ft | 220 kts | 324° |
| 2026-04-18 02:21 | -36.46172 | 174.46835 | 14240 ft | 220 kts | 324° |
| 2026-04-18 02:21 | -36.44913 | 174.45735 | 14629 ft | 221 kts | 323° |
| 2026-04-18 02:21 | -36.43658 | 174.44638 | 14994 ft | 222 kts | 323° |
| 2026-04-18 02:22 | -36.42391 | 174.43530 | 15355 ft | 223 kts | 323° |
| 2026-04-18 02:22 | -36.41124 | 174.42424 | 15711 ft | 224 kts | 323° |
| 2026-04-18 02:22 | -36.39846 | 174.41309 | 16054 ft | 225 kts | 323° |
| 2026-04-18 02:22 | -36.38566 | 174.40193 | 16389 ft | 226 kts | 323° |
| 2026-04-18 02:23 | -36.37283 | 174.39073 | 16704 ft | 227 kts | 323° |
| 2026-04-18 02:23 | -36.35960 | 174.37920 | 16836 ft | 237 kts | 323° |
| 2026-04-18 02:23 | -36.34589 | 174.36726 | 16879 ft | 250 kts | 323° |
| 2026-04-18 02:23 | -36.33124 | 174.35451 | 16886 ft | 262 kts | 323° |
| 2026-04-18 02:24 | -36.31597 | 174.34123 | 16886 ft | 273 kts | 323° |
| 2026-04-18 02:24 | -36.30030 | 174.32764 | 16884 ft | 282 kts | 323° |
| 2026-04-18 02:24 | -36.28388 | 174.31339 | 16877 ft | 289 kts | 323° |
| 2026-04-18 02:24 | -36.26718 | 174.29892 | 16866 ft | 295 kts | 324° |
| 2026-04-18 02:25 | -36.25033 | 174.28433 | 16862 ft | 299 kts | 323° |
| 2026-04-18 02:25 | -36.23314 | 174.26945 | 16860 ft | 302 kts | 324° |
| 2026-04-18 02:25 | -36.21595 | 174.25458 | 16859 ft | 305 kts | 324° |
| 2026-04-18 02:25 | -36.19843 | 174.23943 | 16857 ft | 305 kts | 324° |